createdAt,value
2022-08-25T00:01:16.785Z,59.58
2022-08-25T00:03:44.842Z,59.87
2022-08-25T00:06:12.050Z,60.72
2022-08-25T00:08:39.260Z,61.41
2022-08-25T00:11:08.038Z,61.13
2022-08-25T00:13:34.901Z,61.12
2022-08-25T00:16:01.615Z,60.45
2022-08-25T00:18:28.575Z,60.69
2022-08-25T00:20:55.213Z,60.39
2022-08-25T00:23:21.897Z,61.10
2022-08-25T00:25:48.978Z,61.87
2022-08-25T00:28:15.658Z,61.61
2022-08-25T00:30:43.470Z,61.63
2022-08-25T00:33:10.518Z,61.61
2022-08-25T00:35:37.222Z,62.10
2022-08-25T00:38:04.160Z,61.89
2022-08-25T00:40:31.351Z,62.56
2022-08-25T00:42:58.072Z,62.65
2022-08-25T00:45:25.019Z,62.06
2022-08-25T00:47:51.841Z,62.17
2022-08-25T00:50:19.421Z,62.12
2022-08-25T00:52:53.672Z,61.96
2022-08-25T00:55:35.805Z,62.22
2022-08-25T00:58:14.218Z,61.75
2022-08-25T01:00:45.072Z,61.86
2022-08-25T01:03:12.580Z,61.79
2022-08-25T01:05:42.975Z,62.03
2022-08-25T01:08:10.711Z,61.69
2022-08-25T01:10:40.600Z,61.66
2022-08-25T01:13:18.900Z,61.86
2022-08-25T01:15:47.666Z,61.99
2022-08-25T01:18:15.247Z,62.65
2022-08-25T01:20:42.866Z,63.00
2022-08-25T01:23:09.423Z,64.39
2022-08-25T01:25:42.238Z,64.93
2022-08-25T01:28:09.791Z,64.21
2022-08-25T01:30:36.727Z,63.48
2022-08-25T01:33:09.092Z,63.66
2022-08-25T01:35:36.790Z,63.31
2022-08-25T01:38:05.454Z,63.67
2022-08-25T01:40:33.178Z,63.03
2022-08-25T01:43:15.027Z,63.29
2022-08-25T01:45:45.803Z,63.07
2022-08-25T01:48:13.519Z,63.68
2022-08-25T01:50:41.486Z,63.84
2022-08-25T01:53:13.561Z,64.16
2022-08-25T01:55:40.431Z,64.17
2022-08-25T01:58:07.030Z,64.02
2022-08-25T02:00:33.810Z,64.21
2022-08-25T02:03:00.587Z,64.37
2022-08-25T02:05:27.641Z,64.06
2022-08-25T02:07:54.737Z,64.87
2022-08-25T02:10:21.390Z,63.89
2022-08-25T02:12:49.941Z,63.38
2022-08-25T02:15:16.965Z,63.71
2022-08-25T02:17:43.530Z,63.81
2022-08-25T02:20:10.864Z,63.39
2022-08-25T02:22:37.451Z,63.41
2022-08-25T02:25:04.704Z,63.69
2022-08-25T02:27:31.452Z,63.60
2022-08-25T02:29:58.128Z,63.88
2022-08-25T02:32:24.707Z,64.56
2022-08-25T02:34:51.463Z,64.97
2022-08-25T02:37:18.012Z,64.37
2022-08-25T02:39:44.671Z,64.73
2022-08-25T02:42:11.546Z,65.27
2022-08-25T02:44:38.312Z,65.21
2022-08-25T02:47:04.935Z,65.14
2022-08-25T02:49:31.661Z,64.53
2022-08-25T02:51:58.387Z,64.41
2022-08-25T02:54:25.068Z,64.37
2022-08-25T02:56:51.692Z,63.94
2022-08-25T02:59:18.444Z,64.53
2022-08-25T03:01:45.697Z,64.58
2022-08-25T03:04:13.036Z,64.82
2022-08-25T03:06:39.634Z,64.89
2022-08-25T03:09:06.740Z,65.20
2022-08-25T03:11:33.597Z,65.20
2022-08-25T03:14:00.279Z,65.96
2022-08-25T03:16:28.064Z,66.84
2022-08-25T03:18:55.562Z,68.05
2022-08-25T03:21:22.625Z,68.31
2022-08-25T03:23:49.269Z,68.25
2022-08-25T03:26:15.962Z,68.52
2022-08-25T03:28:42.620Z,67.73
2022-08-25T03:31:09.683Z,67.50
2022-08-25T03:33:36.952Z,66.88
2022-08-25T03:36:04.457Z,66.49
2022-08-25T03:38:31.284Z,66.00
2022-08-25T03:40:57.910Z,65.66
2022-08-25T03:43:24.692Z,66.02
2022-08-25T03:45:51.295Z,65.89
2022-08-25T03:48:18.069Z,66.05
2022-08-25T03:50:50.738Z,66.65
2022-08-25T03:53:19.942Z,66.33
2022-08-25T03:55:47.038Z,65.97
2022-08-25T03:58:14.175Z,66.03
2022-08-25T04:00:40.892Z,66.07
2022-08-25T04:03:07.677Z,66.12
2022-08-25T04:05:34.260Z,66.22
2022-08-25T04:08:01.191Z,66.88
2022-08-25T04:10:27.788Z,67.02
2022-08-25T04:12:54.432Z,67.01
2022-08-25T04:15:24.167Z,67.51
2022-08-25T04:17:57.377Z,66.89
2022-08-25T04:20:23.970Z,67.10
2022-08-25T04:22:50.829Z,66.92
2022-08-25T04:25:17.560Z,66.85
2022-08-25T04:27:44.242Z,67.52
2022-08-25T04:30:11.522Z,67.69
2022-08-25T04:32:38.232Z,68.32
2022-08-25T04:35:05.222Z,68.62
2022-08-25T04:37:32.199Z,68.32
2022-08-25T04:39:59.105Z,67.56
2022-08-25T04:42:25.854Z,67.63
2022-08-25T04:44:52.609Z,68.45
2022-08-25T04:47:19.282Z,69.13
2022-08-25T04:49:45.891Z,69.71
2022-08-25T04:52:13.221Z,69.48
2022-08-25T04:54:41.952Z,69.41
2022-08-25T04:57:08.687Z,69.55
2022-08-25T04:59:35.353Z,69.46
2022-08-25T05:02:02.774Z,69.59
2022-08-25T05:04:30.135Z,69.84
2022-08-25T05:06:57.281Z,69.41
2022-08-25T05:09:25.259Z,69.89
2022-08-25T05:11:53.059Z,69.47
2022-08-25T05:14:20.843Z,69.10
2022-08-25T05:16:48.494Z,68.87
2022-08-25T05:19:15.403Z,68.43
2022-08-25T05:21:42.071Z,68.08
2022-08-25T05:24:08.626Z,67.89
2022-08-25T05:26:35.633Z,67.74
2022-08-25T05:29:04.153Z,67.81
2022-08-25T05:31:32.136Z,68.82
2022-08-25T05:33:59.374Z,68.30
2022-08-25T05:36:27.881Z,66.84
2022-08-25T05:38:54.421Z,67.61
2022-08-25T05:41:25.518Z,67.52
2022-08-25T05:43:52.335Z,66.84
2022-08-25T05:46:20.279Z,67.01
2022-08-25T05:48:47.735Z,67.06
2022-08-25T05:51:15.048Z,66.90
2022-08-25T05:53:49.212Z,66.78
2022-08-25T05:56:17.231Z,66.72
2022-08-25T05:58:44.509Z,66.78
2022-08-25T06:01:20.525Z,65.38
2022-08-25T06:03:47.952Z,65.24
2022-08-25T06:06:16.334Z,66.83
2022-08-25T06:08:44.428Z,65.33
2022-08-25T06:11:12.599Z,65.96
2022-08-25T06:13:39.934Z,65.95
2022-08-25T06:16:06.878Z,66.09
2022-08-25T06:18:33.697Z,66.08
2022-08-25T06:21:08.111Z,64.55
2022-08-25T06:23:34.758Z,62.17
2022-08-25T06:26:01.476Z,62.58
2022-08-25T06:28:28.239Z,61.21
2022-08-25T06:31:01.186Z,60.87
2022-08-25T06:33:28.584Z,61.18
2022-08-25T06:35:55.767Z,61.98
2022-08-25T06:38:23.728Z,62.38
2022-08-25T06:40:50.527Z,61.80
2022-08-25T06:43:17.170Z,62.01
2022-08-25T06:45:43.720Z,61.40
2022-08-25T06:48:10.967Z,62.02
2022-08-25T06:50:41.564Z,62.74
2022-08-25T06:53:08.201Z,62.61
2022-08-25T06:55:34.795Z,61.66
2022-08-25T06:58:02.338Z,61.37
2022-08-25T07:00:32.491Z,61.49
2022-08-25T07:03:00.584Z,59.38
2022-08-25T07:05:42.646Z,60.16
2022-08-25T07:08:09.703Z,59.84
2022-08-25T07:10:36.743Z,59.61
2022-08-25T07:13:03.395Z,60.17
2022-08-25T07:15:29.958Z,59.66
2022-08-25T07:17:58.130Z,60.56
2022-08-25T07:22:51.393Z,60.59
2022-08-25T07:25:18.131Z,62.24
2022-08-25T07:27:44.846Z,63.19
2022-08-25T07:30:11.582Z,63.02
2022-08-25T07:32:42.070Z,64.22
2022-08-25T07:35:10.868Z,63.34
2022-08-25T07:37:48.805Z,62.72
2022-08-25T07:40:23.450Z,62.38
2022-08-25T07:42:52.187Z,61.84
2022-08-25T07:45:21.185Z,61.22
2022-08-25T07:47:48.563Z,61.69
2022-08-25T07:50:18.692Z,62.49
2022-08-25T07:52:45.379Z,61.93
2022-08-25T07:55:20.473Z,60.82
2022-08-25T07:57:48.906Z,60.53
2022-08-25T08:00:21.040Z,62.07
2022-08-25T08:02:47.830Z,61.64
2022-08-25T08:05:15.427Z,62.62
2022-08-25T08:07:43.739Z,63.23
2022-08-25T08:13:00.818Z,64.27
2022-08-25T08:15:29.794Z,63.58
2022-08-25T08:17:57.891Z,63.03
2022-08-25T08:20:24.921Z,62.51
2022-08-25T08:22:52.075Z,62.22
2022-08-25T08:25:21.311Z,62.93
2022-08-25T08:27:51.017Z,63.32
2022-08-25T08:30:22.021Z,63.38
2022-08-25T08:33:09.120Z,62.06
2022-08-25T08:35:37.452Z,62.00
2022-08-25T08:38:13.524Z,62.51
2022-08-25T08:40:59.722Z,61.28
2022-08-25T08:43:28.344Z,59.86
2022-08-25T08:45:59.700Z,59.21
2022-08-25T08:48:53.098Z,58.28
2022-08-25T08:51:23.402Z,58.45
2022-08-25T08:54:14.971Z,59.83
2022-08-25T08:56:48.379Z,59.51
2022-08-25T08:59:30.158Z,58.57
2022-08-25T09:02:00.391Z,58.70
2022-08-25T09:04:37.547Z,59.27
2022-08-25T09:07:10.689Z,59.48
2022-08-25T09:09:41.360Z,60.69
2022-08-25T09:12:08.627Z,60.92
2022-08-25T09:14:53.741Z,60.54
2022-08-25T09:17:54.434Z,61.15
2022-08-25T09:20:46.921Z,59.66
2022-08-25T09:23:32.764Z,59.81
2022-08-25T09:26:29.879Z,57.22
2022-08-25T09:29:22.661Z,56.85
2022-08-25T09:31:54.720Z,58.14
2022-08-25T09:34:28.292Z,57.99
2022-08-25T09:36:54.992Z,57.86
2022-08-25T09:39:23.510Z,55.63
2022-08-25T09:41:53.410Z,55.90
2022-08-25T09:44:32.226Z,55.80
2022-08-25T09:47:18.058Z,56.09
2022-08-25T09:49:54.682Z,56.27
2022-08-25T09:52:28.297Z,54.31
2022-08-25T09:54:56.818Z,54.76
2022-08-25T09:57:36.754Z,54.30
2022-08-25T10:00:31.630Z,53.40
2022-08-25T10:03:22.727Z,53.01
2022-08-25T10:06:07.814Z,52.47
2022-08-25T10:08:53.622Z,51.33
2022-08-25T10:11:50.110Z,51.30
2022-08-25T10:14:18.993Z,50.79
2022-08-25T10:16:47.703Z,52.79
2022-08-25T10:19:28.145Z,51.39
2022-08-25T10:22:06.826Z,51.83
2022-08-25T10:24:35.170Z,52.03
2022-08-25T10:27:09.520Z,49.92
2022-08-25T10:29:54.957Z,49.21
2022-08-25T10:32:33.870Z,49.70
2022-08-25T10:35:09.481Z,49.89
2022-08-25T10:38:02.822Z,50.64
2022-08-25T10:40:41.069Z,51.67
2022-08-25T10:43:42.975Z,50.58
2022-08-25T10:46:31.381Z,51.21
2022-08-25T10:49:04.509Z,49.81
2022-08-25T10:51:43.457Z,49.28
2022-08-25T10:54:24.252Z,49.06
2022-08-25T10:57:13.351Z,49.23
2022-08-25T10:59:40.140Z,49.21
2022-08-25T11:02:22.043Z,50.57
2022-08-25T11:04:52.514Z,49.21
2022-08-25T11:07:24.436Z,48.01
2022-08-25T11:09:54.801Z,47.68
2022-08-25T11:12:30.137Z,46.97
2022-08-25T11:15:19.461Z,46.23
2022-08-25T11:17:57.521Z,46.03
2022-08-25T11:20:33.517Z,45.26
2022-08-25T11:23:28.284Z,45.37
2022-08-25T11:26:03.099Z,45.75
2022-08-25T11:28:29.835Z,47.30
2022-08-25T11:31:00.493Z,46.77
2022-08-25T11:33:29.167Z,46.02
2022-08-25T11:36:00.957Z,46.36
2022-08-25T11:38:37.586Z,45.33
2022-08-25T11:41:11.287Z,45.06
2022-08-25T11:44:12.433Z,45.77
2022-08-25T11:47:14.313Z,46.23
2022-08-25T11:50:25.936Z,46.12
2022-08-25T11:53:16.163Z,45.85
2022-08-25T11:55:53.464Z,46.25
2022-08-25T11:58:35.455Z,45.65
2022-08-25T12:01:06.142Z,45.64
2022-08-25T12:03:35.560Z,43.53
2022-08-25T12:06:23.937Z,44.18
2022-08-25T12:09:00.007Z,43.33
2022-08-25T12:11:39.598Z,43.26
2022-08-25T12:14:28.730Z,43.52
2022-08-25T12:16:55.498Z,43.39
2022-08-25T12:19:34.288Z,42.29
2022-08-25T12:22:01.017Z,43.10
2022-08-25T12:24:48.140Z,42.91
2022-08-25T12:27:34.246Z,43.38
2022-08-25T12:30:00.820Z,43.21
2022-08-25T12:33:01.446Z,43.49
2022-08-25T12:35:38.392Z,42.90
2022-08-25T12:38:10.863Z,42.91
2022-08-25T12:40:45.306Z,42.06
2022-08-25T12:43:27.444Z,41.73
2022-08-25T12:46:23.108Z,41.43
2022-08-25T12:48:53.694Z,42.34
2022-08-25T12:51:26.902Z,42.88
2022-08-25T12:53:59.407Z,43.88
2022-08-25T12:56:32.071Z,44.16
2022-08-25T12:59:01.690Z,43.63
2022-08-25T13:01:47.320Z,43.74
2022-08-25T13:04:35.306Z,43.52
2022-08-25T13:07:14.113Z,44.07
2022-08-25T13:10:05.561Z,44.83
2022-08-25T13:13:01.753Z,44.21
2022-08-25T13:15:47.176Z,41.85
2022-08-25T13:18:37.095Z,42.69
2022-08-25T13:21:08.539Z,43.29
2022-08-25T13:23:40.807Z,42.40
2022-08-25T13:26:07.744Z,41.35
2022-08-25T13:28:40.752Z,40.13
2022-08-25T13:31:20.497Z,40.21
2022-08-25T13:33:58.210Z,41.22
2022-08-25T13:36:27.555Z,41.24
2022-08-25T13:38:54.832Z,41.17
2022-08-25T13:41:29.220Z,41.37
2022-08-25T13:44:00.785Z,42.11
2022-08-25T13:46:27.960Z,42.57
2022-08-25T13:49:05.032Z,43.29
2022-08-25T13:51:36.727Z,42.78
2022-08-25T13:54:07.100Z,42.16
2022-08-25T13:56:41.414Z,42.73
2022-08-25T13:59:24.372Z,41.87
2022-08-25T14:01:52.086Z,42.08
2022-08-25T14:04:27.638Z,42.05
2022-08-25T14:07:15.553Z,42.40
2022-08-25T14:09:52.160Z,42.13
2022-08-25T14:12:36.632Z,42.37
2022-08-25T14:15:08.839Z,42.93
2022-08-25T14:17:39.325Z,41.84
2022-08-25T14:20:17.206Z,42.05
2022-08-25T14:22:44.065Z,41.81
2022-08-25T14:25:10.766Z,42.01
2022-08-25T14:27:56.824Z,42.38
2022-08-25T14:30:28.653Z,42.69
2022-08-25T14:32:56.797Z,41.85
2022-08-25T14:35:23.495Z,41.53
2022-08-25T14:37:50.604Z,41.00
2022-08-25T14:40:17.281Z,41.19
2022-08-25T14:42:44.681Z,41.57
2022-08-25T14:45:14.564Z,42.46
2022-08-25T14:47:41.244Z,42.24
2022-08-25T14:50:08.331Z,42.60
2022-08-25T14:52:35.020Z,42.27
2022-08-25T14:55:01.975Z,42.35
2022-08-25T14:57:28.775Z,42.32
2022-08-25T14:59:55.496Z,41.79
2022-08-25T15:02:29.346Z,41.76
2022-08-25T15:05:00.294Z,41.88
2022-08-25T15:07:29.384Z,41.91
2022-08-25T15:09:55.955Z,42.77
2022-08-25T15:12:46.024Z,43.12
2022-08-25T15:15:09.919Z,42.35
2022-08-25T15:17:41.881Z,42.27
2022-08-25T15:20:11.962Z,42.44
2022-08-25T15:22:38.660Z,42.90
2022-08-25T15:25:06.297Z,42.69
2022-08-25T15:27:34.336Z,43.04
2022-08-25T15:30:01.045Z,42.88
2022-08-25T15:32:27.859Z,42.96
2022-08-25T15:34:54.658Z,41.94
2022-08-25T15:37:21.292Z,42.28
2022-08-25T15:39:47.962Z,42.69
2022-08-25T15:42:14.788Z,42.49
2022-08-25T15:44:42.199Z,42.75
2022-08-25T15:47:21.128Z,42.50
2022-08-25T15:49:47.845Z,42.10
2022-08-25T15:52:14.522Z,41.94
2022-08-25T15:54:41.173Z,42.52
2022-08-25T15:57:08.823Z,42.30
2022-08-25T15:59:36.132Z,42.43
2022-08-25T16:02:14.943Z,42.52
2022-08-25T16:04:42.178Z,41.99
2022-08-25T16:07:09.880Z,42.55
2022-08-25T16:09:41.246Z,42.16
2022-08-25T16:12:08.757Z,41.91
2022-08-25T16:14:36.609Z,42.32
2022-08-25T16:17:04.254Z,42.76
2022-08-25T16:19:31.738Z,41.50
2022-08-25T16:21:59.911Z,42.01
2022-08-25T16:24:27.188Z,42.06
2022-08-25T16:26:55.969Z,41.87
2022-08-25T16:29:23.489Z,42.05
2022-08-25T16:31:54.902Z,42.21
2022-08-25T16:34:24.455Z,42.74
2022-08-25T16:36:52.992Z,42.64
2022-08-25T16:39:20.773Z,42.03
2022-08-25T16:41:47.921Z,42.36
2022-08-25T16:44:15.342Z,42.44
2022-08-25T16:46:42.384Z,42.25
2022-08-25T16:49:12.308Z,42.30
2022-08-25T16:51:40.316Z,42.33
2022-08-25T16:54:09.256Z,42.51
2022-08-25T16:56:37.140Z,42.03
2022-08-25T16:59:04.965Z,42.11
2022-08-25T17:01:33.417Z,41.62
2022-08-25T17:04:00.160Z,42.07
2022-08-25T17:06:32.893Z,42.45
2022-08-25T17:08:59.963Z,42.12
2022-08-25T17:11:29.556Z,41.45
2022-08-25T17:14:01.036Z,42.39
2022-08-25T17:16:35.748Z,41.93
2022-08-25T17:19:07.383Z,42.39
2022-08-25T17:21:45.102Z,42.14
2022-08-25T17:24:13.275Z,42.21
2022-08-25T17:26:42.320Z,42.05
2022-08-25T17:29:09.737Z,42.04
2022-08-25T17:31:37.335Z,41.97
2022-08-25T17:34:04.214Z,42.32
2022-08-25T17:36:30.819Z,42.51
2022-08-25T17:38:57.525Z,42.60
2022-08-25T17:41:24.794Z,43.01
2022-08-25T17:43:51.458Z,42.58
2022-08-25T17:46:18.257Z,42.87
2022-08-25T17:48:45.170Z,42.75
2022-08-25T17:51:12.651Z,42.86
2022-08-25T17:53:42.487Z,43.51
2022-08-25T17:56:15.460Z,43.71
2022-08-25T17:58:46.218Z,43.93
2022-08-25T18:01:23.583Z,43.68
2022-08-25T18:03:51.025Z,43.84
2022-08-25T18:06:18.413Z,43.55
2022-08-25T18:08:50.276Z,43.93
2022-08-25T18:11:20.080Z,44.56
2022-08-25T18:13:46.793Z,44.06
2022-08-25T18:16:13.905Z,44.36
2022-08-25T18:18:42.522Z,44.35
2022-08-25T18:21:14.817Z,45.21
2022-08-25T18:23:42.394Z,45.09
2022-08-25T18:26:12.972Z,45.06
2022-08-25T18:28:40.262Z,45.78
2022-08-25T18:31:10.945Z,46.13
2022-08-25T18:33:37.714Z,45.78
2022-08-25T18:36:09.679Z,45.98
2022-08-25T18:38:37.420Z,46.40
2022-08-25T18:41:07.760Z,46.37
2022-08-25T18:43:34.968Z,46.99
2022-08-25T18:46:03.540Z,46.46
2022-08-25T18:48:31.852Z,46.75
2022-08-25T18:51:00.531Z,46.75
2022-08-25T18:53:30.510Z,47.46
2022-08-25T18:56:05.689Z,47.74
2022-08-25T18:58:32.440Z,47.85
2022-08-25T19:00:59.077Z,48.07
2022-08-25T19:03:27.488Z,48.36
2022-08-25T19:05:57.860Z,48.19
2022-08-25T19:08:24.974Z,47.93
2022-08-25T19:10:52.837Z,48.06
2022-08-25T19:13:22.733Z,48.23
2022-08-25T19:15:51.482Z,48.30
2022-08-25T19:18:18.838Z,48.27
2022-08-25T19:20:52.821Z,48.24
2022-08-25T19:23:19.943Z,48.13
2022-08-25T19:25:46.765Z,48.22
2022-08-25T19:28:13.720Z,47.92
2022-08-25T19:30:49.721Z,47.61
2022-08-25T19:33:42.241Z,47.25
2022-08-25T19:36:08.499Z,47.42
2022-08-25T19:38:37.218Z,47.40
2022-08-25T19:41:10.799Z,47.02
2022-08-25T19:43:56.051Z,46.94
2022-08-25T19:46:37.411Z,47.28
2022-08-25T19:49:11.243Z,47.65
2022-08-25T19:51:40.736Z,47.46
2022-08-25T19:54:10.146Z,47.94
2022-08-25T19:56:53.618Z,48.04
2022-08-25T19:59:22.791Z,48.51
2022-08-25T20:01:49.717Z,49.14
2022-08-25T20:04:16.723Z,49.01
2022-08-25T20:06:43.302Z,48.38
2022-08-25T20:09:36.040Z,48.98
2022-08-25T20:12:04.231Z,49.38
2022-08-25T20:14:33.445Z,49.16
2022-08-25T20:17:22.982Z,49.12
2022-08-25T20:19:57.371Z,49.24
2022-08-25T20:22:26.906Z,49.04
2022-08-25T20:24:58.020Z,48.79
2022-08-25T20:27:32.602Z,49.19
2022-08-25T20:29:59.914Z,49.32
2022-08-25T20:32:29.772Z,48.85
2022-08-25T20:34:56.641Z,49.47
2022-08-25T20:37:23.219Z,49.29
2022-08-25T20:39:51.228Z,49.86
2022-08-25T20:42:17.840Z,49.62
2022-08-25T20:44:44.511Z,49.91
2022-08-25T20:47:11.068Z,49.82
2022-08-25T20:49:41.513Z,50.06
2022-08-25T20:52:08.505Z,50.26
2022-08-25T20:54:35.448Z,50.10
2022-08-25T20:57:02.887Z,50.57
2022-08-25T20:59:29.600Z,50.40
2022-08-25T21:01:56.694Z,50.58
2022-08-25T21:04:26.967Z,50.70
2022-08-25T21:06:53.558Z,50.69
2022-08-25T21:09:22.613Z,50.69
2022-08-25T21:11:52.247Z,50.83
2022-08-25T21:14:19.563Z,50.93
2022-08-25T21:16:46.480Z,50.98
2022-08-25T21:19:26.582Z,51.35
2022-08-25T21:22:00.022Z,51.65
2022-08-25T21:24:27.466Z,52.04
2022-08-25T21:26:56.676Z,51.97
2022-08-25T21:29:25.232Z,52.14
2022-08-25T21:31:52.154Z,52.34
2022-08-25T21:34:20.019Z,52.43
2022-08-25T21:36:48.001Z,52.32
2022-08-25T21:39:15.330Z,52.48
2022-08-25T21:41:42.999Z,53.22
2022-08-25T21:44:10.941Z,52.95
2022-08-25T21:46:37.865Z,53.20
2022-08-25T21:49:06.711Z,52.90
2022-08-25T21:51:41.032Z,53.26
2022-08-25T21:54:11.211Z,53.38
2022-08-25T21:56:41.371Z,53.77
2022-08-25T21:59:13.295Z,53.66
2022-08-25T22:01:40.847Z,53.52
2022-08-25T22:04:09.096Z,53.99
2022-08-25T22:06:36.077Z,54.07
2022-08-25T22:09:04.523Z,54.41
2022-08-25T22:11:31.939Z,54.72
2022-08-25T22:14:03.731Z,54.70
2022-08-25T22:16:33.024Z,54.66
2022-08-25T22:18:59.726Z,54.52
2022-08-25T22:21:28.335Z,54.62
2022-08-25T22:23:56.008Z,54.82
2022-08-25T22:26:24.119Z,55.77
2022-08-25T22:28:54.096Z,56.36
2022-08-25T22:31:21.196Z,56.97
2022-08-25T22:33:49.659Z,57.39
2022-08-25T22:36:17.388Z,57.35
2022-08-25T22:38:45.947Z,57.83
2022-08-25T22:41:13.313Z,57.96
2022-08-25T22:43:53.444Z,58.14
2022-08-25T22:46:21.841Z,57.64
2022-08-25T22:48:50.256Z,58.02
2022-08-25T22:51:23.202Z,57.73
2022-08-25T22:53:50.869Z,57.95
2022-08-25T22:56:21.351Z,58.87
2022-08-25T22:58:51.798Z,57.91
2022-08-25T23:01:19.972Z,58.14
2022-08-25T23:03:47.674Z,58.17
2022-08-25T23:06:24.490Z,59.37
2022-08-25T23:08:53.696Z,59.71
2022-08-25T23:11:23.839Z,60.05
2022-08-25T23:13:50.801Z,60.50
2022-08-25T23:16:18.056Z,59.08
2022-08-25T23:18:45.252Z,59.24
2022-08-25T23:21:12.606Z,58.85
2022-08-25T23:23:42.267Z,58.91
2022-08-25T23:26:10.481Z,59.03
2022-08-25T23:28:37.238Z,58.81
2022-08-25T23:31:09.482Z,58.92
2022-08-25T23:33:39.517Z,59.72
2022-08-25T23:36:09.330Z,59.66
2022-08-25T23:38:39.350Z,59.50
2022-08-25T23:41:07.628Z,59.37
2022-08-25T23:43:36.205Z,59.05
2022-08-25T23:46:03.208Z,58.74
2022-08-25T23:48:30.350Z,58.88
2022-08-25T23:50:57.650Z,59.51
2022-08-25T23:53:25.224Z,59.50
2022-08-25T23:55:53.063Z,59.13
2022-08-25T23:58:20.753Z,59.84
